Litchfield, Nebraska
Current Conditions -  °F | °C
As of 3:15 AM on Monday 20 Oct 2014 (Local Time) from KEAR Reporting Station
Clear Clear  
Wind Chill: 44°   Ceiling: Unl
Heat Index: 46°   Visibility: 10mi
Dew Point: 43°   Wind: 6mph
Humidity: 87%   Direction: 270°W
Pressure: 30.06"   Gusts: NA
Location:  41.16°N, 99.16°W
Report Text: KEAR 200815Z 27005KT 10SM CLR 08/06 A3006 RMK AO1
Loading
Personal Weather Stations






























Interactive Weather Map
Tropical Storm Tracking
New forecast layout! Learn more

10-Day Weather Forecast

Advertisements
Track Severe Weather on mobile